Terminal Aerodrome Forecast
Issued by NWS

Home | Current Version | Previous Version | Text Only | Print | Product List | Glossary On
Versions: 1 2 3 4 5 6 7 8 9 10 11 12 13 14 15 16 17 18 19
000
FTUS44 KTSA 221302 AAA
TAFXNA
TAF AMD
KXNA 221302Z 2213/2312 01006KT 6SM -RA BR BKN015
      TEMPO 2213/2215 2SM -TSRA BKN005CB
     FM221500 35010KT 5SM -RA BR OVC007
     FM221800 35012G18KT 5SM -RA BR OVC007
     FM222100 35015G25KT P6SM BKN015
     FM230000 35012G18KT P6SM BKN025
     FM230200 32012KT P6SM BKN050
     FM230600 32005KT P6SM SKC=

USA.gov is the U.S. government's official web portal to all federal, state and local government web resources and services.